sensor_id;sensor_type;location;lat;lon;timestamp;P1;durP1;ratioP1;P2;durP2;ratioP2
8365;SDS011;4220;42.502;24.188;2024-02-21T00:01:17;29.93;;;21.20;;
8365;SDS011;4220;42.502;24.188;2024-02-21T00:03:45;63.83;;;42.03;;
8365;SDS011;4220;42.502;24.188;2024-02-21T00:06:12;41.87;;;27.07;;
8365;SDS011;4220;42.502;24.188;2024-02-21T00:08:38;31.87;;;20.53;;
8365;SDS011;4220;42.502;24.188;2024-02-21T00:11:05;29.53;;;19.90;;
8365;SDS011;4220;42.502;24.188;2024-02-21T00:13:34;26.07;;;18.90;;
8365;SDS011;4220;42.502;24.188;2024-02-21T00:16:00;28.00;;;20.03;;
8365;SDS011;4220;42.502;24.188;2024-02-21T00:18:27;29.00;;;20.93;;
8365;SDS011;4220;42.502;24.188;2024-02-21T00:20:54;29.77;;;21.60;;
8365;SDS011;4220;42.502;24.188;2024-02-21T00:23:22;28.73;;;21.17;;
8365;SDS011;4220;42.502;24.188;2024-02-21T00:25:48;28.60;;;22.27;;
8365;SDS011;4220;42.502;24.188;2024-02-21T00:28:15;26.17;;;19.07;;
8365;SDS011;4220;42.502;24.188;2024-02-21T00:30:43;29.70;;;19.57;;
8365;SDS011;4220;42.502;24.188;2024-02-21T00:33:10;33.73;;;22.37;;
8365;SDS011;4220;42.502;24.188;2024-02-21T00:35:37;31.33;;;21.87;;
8365;SDS011;4220;42.502;24.188;2024-02-21T00:38:04;34.57;;;24.07;;
8365;SDS011;4220;42.502;24.188;2024-02-21T00:40:30;33.83;;;22.90;;
8365;SDS011;4220;42.502;24.188;2024-02-21T00:42:57;32.70;;;22.17;;
8365;SDS011;4220;42.502;24.188;2024-02-21T00:45:24;30.27;;;22.80;;
8365;SDS011;4220;42.502;24.188;2024-02-21T00:47:52;34.00;;;23.27;;
8365;SDS011;4220;42.502;24.188;2024-02-21T00:50:18;33.13;;;24.57;;
8365;SDS011;4220;42.502;24.188;2024-02-21T00:52:45;36.80;;;24.13;;
8365;SDS011;4220;42.502;24.188;2024-02-21T00:55:12;32.50;;;24.57;;
8365;SDS011;4220;42.502;24.188;2024-02-21T00:57:39;32.10;;;22.87;;
8365;SDS011;4220;42.502;24.188;2024-02-21T01:00:06;27.73;;;20.90;;
8365;SDS011;4220;42.502;24.188;2024-02-21T01:02:34;18.47;;;13.77;;
8365;SDS011;4220;42.502;24.188;2024-02-21T01:05:02;22.67;;;15.27;;
8365;SDS011;4220;42.502;24.188;2024-02-21T01:07:29;19.63;;;12.90;;
8365;SDS011;4220;42.502;24.188;2024-02-21T01:09:56;21.57;;;16.07;;
8365;SDS011;4220;42.502;24.188;2024-02-21T01:12:23;21.00;;;15.73;;
8365;SDS011;4220;42.502;24.188;2024-02-21T01:14:49;19.20;;;15.17;;
8365;SDS011;4220;42.502;24.188;2024-02-21T01:17:16;22.27;;;15.13;;
8365;SDS011;4220;42.502;24.188;2024-02-21T01:19:43;22.70;;;16.37;;
8365;SDS011;4220;42.502;24.188;2024-02-21T01:22:13;21.17;;;17.27;;
8365;SDS011;4220;42.502;24.188;2024-02-21T01:24:41;20.70;;;14.37;;
8365;SDS011;4220;42.502;24.188;2024-02-21T01:27:07;20.90;;;16.20;;
8365;SDS011;4220;42.502;24.188;2024-02-21T01:29:34;20.77;;;15.80;;
8365;SDS011;4220;42.502;24.188;2024-02-21T01:32:01;23.23;;;16.20;;
8365;SDS011;4220;42.502;24.188;2024-02-21T01:34:28;24.53;;;17.77;;
8365;SDS011;4220;42.502;24.188;2024-02-21T01:36:55;23.00;;;16.40;;
8365;SDS011;4220;42.502;24.188;2024-02-21T01:39:23;20.43;;;15.23;;
8365;SDS011;4220;42.502;24.188;2024-02-21T01:41:49;20.93;;;15.90;;
8365;SDS011;4220;42.502;24.188;2024-02-21T01:44:16;24.37;;;16.83;;
8365;SDS011;4220;42.502;24.188;2024-02-21T01:46:43;23.67;;;17.43;;
8365;SDS011;4220;42.502;24.188;2024-02-21T01:49:10;23.20;;;17.10;;
8365;SDS011;4220;42.502;24.188;2024-02-21T01:51:37;23.73;;;18.63;;
8365;SDS011;4220;42.502;24.188;2024-02-21T01:54:04;29.90;;;20.17;;
8365;SDS011;4220;42.502;24.188;2024-02-21T01:56:33;32.07;;;22.50;;
8365;SDS011;4220;42.502;24.188;2024-02-21T01:59:00;34.03;;;23.37;;
8365;SDS011;4220;42.502;24.188;2024-02-21T02:01:27;38.30;;;25.77;;
8365;SDS011;4220;42.502;24.188;2024-02-21T02:03:55;37.47;;;25.77;;
8365;SDS011;4220;42.502;24.188;2024-02-21T02:06:23;35.23;;;23.47;;
8365;SDS011;4220;42.502;24.188;2024-02-21T02:08:50;32.07;;;22.33;;
8365;SDS011;4220;42.502;24.188;2024-02-21T02:11:17;31.23;;;21.47;;
8365;SDS011;4220;42.502;24.188;2024-02-21T02:13:46;28.17;;;19.20;;
8365;SDS011;4220;42.502;24.188;2024-02-21T02:16:13;23.67;;;15.73;;
8365;SDS011;4220;42.502;24.188;2024-02-21T02:18:40;19.93;;;14.67;;
8365;SDS011;4220;42.502;24.188;2024-02-21T02:21:15;22.83;;;18.00;;
8365;SDS011;4220;42.502;24.188;2024-02-21T02:23:50;21.27;;;16.03;;
8365;SDS011;4220;42.502;24.188;2024-02-21T02:26:18;36.20;;;22.67;;
8365;SDS011;4220;42.502;24.188;2024-02-21T02:28:44;30.03;;;21.67;;
8365;SDS011;4220;42.502;24.188;2024-02-21T02:31:11;31.43;;;23.20;;
8365;SDS011;4220;42.502;24.188;2024-02-21T02:33:38;30.90;;;21.43;;
8365;SDS011;4220;42.502;24.188;2024-02-21T02:36:05;30.90;;;22.07;;
8365;SDS011;4220;42.502;24.188;2024-02-21T02:38:32;30.83;;;22.80;;
8365;SDS011;4220;42.502;24.188;2024-02-21T02:41:00;28.93;;;21.27;;
8365;SDS011;4220;42.502;24.188;2024-02-21T02:43:27;31.20;;;22.40;;
8365;SDS011;4220;42.502;24.188;2024-02-21T02:45:53;31.87;;;22.27;;
8365;SDS011;4220;42.502;24.188;2024-02-21T02:48:20;31.30;;;22.37;;
8365;SDS011;4220;42.502;24.188;2024-02-21T02:50:47;27.87;;;22.37;;
8365;SDS011;4220;42.502;24.188;2024-02-21T02:53:14;31.23;;;21.07;;
8365;SDS011;4220;42.502;24.188;2024-02-21T02:55:41;32.20;;;23.03;;
8365;SDS011;4220;42.502;24.188;2024-02-21T02:58:09;31.43;;;23.17;;
8365;SDS011;4220;42.502;24.188;2024-02-21T03:00:36;34.23;;;22.67;;
8365;SDS011;4220;42.502;24.188;2024-02-21T03:03:04;31.00;;;22.70;;
8365;SDS011;4220;42.502;24.188;2024-02-21T03:05:31;32.80;;;23.60;;
8365;SDS011;4220;42.502;24.188;2024-02-21T03:07:58;35.57;;;24.70;;
8365;SDS011;4220;42.502;24.188;2024-02-21T03:10:25;37.80;;;26.87;;
8365;SDS011;4220;42.502;24.188;2024-02-21T03:12:51;38.70;;;28.30;;
8365;SDS011;4220;42.502;24.188;2024-02-21T03:15:20;38.63;;;26.67;;
8365;SDS011;4220;42.502;24.188;2024-02-21T03:17:46;29.57;;;21.60;;
8365;SDS011;4220;42.502;24.188;2024-02-21T03:20:13;32.83;;;24.10;;
8365;SDS011;4220;42.502;24.188;2024-02-21T03:22:40;40.80;;;28.00;;
8365;SDS011;4220;42.502;24.188;2024-02-21T03:25:08;36.37;;;28.33;;
8365;SDS011;4220;42.502;24.188;2024-02-21T03:27:35;37.00;;;26.43;;
8365;SDS011;4220;42.502;24.188;2024-02-21T03:30:02;35.03;;;24.40;;
8365;SDS011;4220;42.502;24.188;2024-02-21T03:32:31;36.13;;;24.93;;
8365;SDS011;4220;42.502;24.188;2024-02-21T03:34:57;32.17;;;24.57;;
8365;SDS011;4220;42.502;24.188;2024-02-21T03:37:24;26.57;;;20.43;;
8365;SDS011;4220;42.502;24.188;2024-02-21T03:39:51;27.97;;;21.07;;
8365;SDS011;4220;42.502;24.188;2024-02-21T03:42:18;26.43;;;19.67;;
8365;SDS011;4220;42.502;24.188;2024-02-21T03:44:44;25.60;;;20.20;;
8365;SDS011;4220;42.502;24.188;2024-02-21T03:47:11;30.20;;;22.80;;
8365;SDS011;4220;42.502;24.188;2024-02-21T03:49:39;30.83;;;22.20;;
8365;SDS011;4220;42.502;24.188;2024-02-21T03:52:06;26.27;;;20.77;;
8365;SDS011;4220;42.502;24.188;2024-02-21T03:54:33;31.40;;;22.10;;
8365;SDS011;4220;42.502;24.188;2024-02-21T03:57:00;30.87;;;23.03;;
8365;SDS011;4220;42.502;24.188;2024-02-21T03:59:27;26.97;;;20.10;;
8365;SDS011;4220;42.502;24.188;2024-02-21T04:01:54;27.57;;;20.60;;
8365;SDS011;4220;42.502;24.188;2024-02-21T04:04:21;22.97;;;17.00;;
8365;SDS011;4220;42.502;24.188;2024-02-21T04:06:49;20.27;;;14.20;;
8365;SDS011;4220;42.502;24.188;2024-02-21T04:09:17;18.27;;;13.07;;
8365;SDS011;4220;42.502;24.188;2024-02-21T04:11:44;19.33;;;14.00;;
8365;SDS011;4220;42.502;24.188;2024-02-21T04:14:11;17.50;;;12.83;;
8365;SDS011;4220;42.502;24.188;2024-02-21T04:16:38;15.20;;;11.87;;
8365;SDS011;4220;42.502;24.188;2024-02-21T04:19:05;17.83;;;13.73;;
8365;SDS011;4220;42.502;24.188;2024-02-21T04:21:31;15.83;;;11.67;;
8365;SDS011;4220;42.502;24.188;2024-02-21T04:24:00;15.30;;;11.93;;
8365;SDS011;4220;42.502;24.188;2024-02-21T04:26:27;10.60;;;7.80;;
8365;SDS011;4220;42.502;24.188;2024-02-21T04:28:54;14.27;;;10.37;;
8365;SDS011;4220;42.502;24.188;2024-02-21T04:31:20;16.97;;;12.13;;
8365;SDS011;4220;42.502;24.188;2024-02-21T04:33:47;56.47;;;34.37;;
8365;SDS011;4220;42.502;24.188;2024-02-21T04:36:14;42.67;;;29.33;;
8365;SDS011;4220;42.502;24.188;2024-02-21T04:38:41;111.87;;;71.00;;
8365;SDS011;4220;42.502;24.188;2024-02-21T04:41:09;82.97;;;55.33;;
8365;SDS011;4220;42.502;24.188;2024-02-21T04:43:35;198.77;;;113.13;;
8365;SDS011;4220;42.502;24.188;2024-02-21T04:46:02;143.63;;;93.67;;
8365;SDS011;4220;42.502;24.188;2024-02-21T04:48:30;209.37;;;127.33;;
8365;SDS011;4220;42.502;24.188;2024-02-21T04:50:57;110.60;;;75.30;;
8365;SDS011;4220;42.502;24.188;2024-02-21T04:53:24;81.27;;;50.80;;
8365;SDS011;4220;42.502;24.188;2024-02-21T04:55:50;65.17;;;44.37;;
8365;SDS011;4220;42.502;24.188;2024-02-21T04:58:18;70.53;;;47.63;;
8365;SDS011;4220;42.502;24.188;2024-02-21T05:00:45;22.13;;;16.40;;
8365;SDS011;4220;42.502;24.188;2024-02-21T05:03:12;15.73;;;12.37;;
8365;SDS011;4220;42.502;24.188;2024-02-21T05:05:38;17.00;;;12.00;;
8365;SDS011;4220;42.502;24.188;2024-02-21T05:08:05;12.67;;;10.37;;
8365;SDS011;4220;42.502;24.188;2024-02-21T05:10:32;14.77;;;10.23;;
8365;SDS011;4220;42.502;24.188;2024-02-21T05:12:59;11.53;;;9.37;;
8365;SDS011;4220;42.502;24.188;2024-02-21T05:15:27;11.50;;;8.47;;
8365;SDS011;4220;42.502;24.188;2024-02-21T05:17:54;9.00;;;7.40;;
8365;SDS011;4220;42.502;24.188;2024-02-21T05:20:21;9.40;;;7.37;;
8365;SDS011;4220;42.502;24.188;2024-02-21T05:22:47;10.90;;;7.20;;
8365;SDS011;4220;42.502;24.188;2024-02-21T05:25:14;9.37;;;7.20;;
8365;SDS011;4220;42.502;24.188;2024-02-21T05:27:41;9.50;;;7.73;;
8365;SDS011;4220;42.502;24.188;2024-02-21T05:30:08;10.20;;;8.93;;
8365;SDS011;4220;42.502;24.188;2024-02-21T05:32:36;11.40;;;9.00;;
8365;SDS011;4220;42.502;24.188;2024-02-21T05:35:03;10.07;;;8.40;;
8365;SDS011;4220;42.502;24.188;2024-02-21T05:37:30;9.63;;;7.17;;
8365;SDS011;4220;42.502;24.188;2024-02-21T05:39:57;9.33;;;7.67;;
8365;SDS011;4220;42.502;24.188;2024-02-21T05:42:23;9.70;;;7.80;;
8365;SDS011;4220;42.502;24.188;2024-02-21T05:44:50;12.57;;;8.20;;
8365;SDS011;4220;42.502;24.188;2024-02-21T05:47:17;10.07;;;7.87;;
8365;SDS011;4220;42.502;24.188;2024-02-21T05:49:47;9.97;;;8.57;;
8365;SDS011;4220;42.502;24.188;2024-02-21T05:52:13;8.37;;;6.53;;
8365;SDS011;4220;42.502;24.188;2024-02-21T05:54:40;9.13;;;7.63;;
8365;SDS011;4220;42.502;24.188;2024-02-21T05:57:07;12.17;;;8.60;;
8365;SDS011;4220;42.502;24.188;2024-02-21T05:59:34;11.03;;;8.20;;
8365;SDS011;4220;42.502;24.188;2024-02-21T06:02:05;11.30;;;8.40;;
8365;SDS011;4220;42.502;24.188;2024-02-21T06:04:31;9.97;;;8.30;;
8365;SDS011;4220;42.502;24.188;2024-02-21T06:07:00;10.30;;;8.23;;
8365;SDS011;4220;42.502;24.188;2024-02-21T06:09:27;11.87;;;8.37;;
8365;SDS011;4220;42.502;24.188;2024-02-21T06:11:53;11.73;;;9.27;;
8365;SDS011;4220;42.502;24.188;2024-02-21T06:14:20;11.17;;;8.17;;
8365;SDS011;4220;42.502;24.188;2024-02-21T06:16:47;11.23;;;8.63;;
8365;SDS011;4220;42.502;24.188;2024-02-21T06:19:13;10.27;;;7.23;;
8365;SDS011;4220;42.502;24.188;2024-02-21T06:21:40;12.37;;;9.00;;
8365;SDS011;4220;42.502;24.188;2024-02-21T06:24:08;11.27;;;7.20;;
8365;SDS011;4220;42.502;24.188;2024-02-21T06:26:35;9.20;;;7.33;;
8365;SDS011;4220;42.502;24.188;2024-02-21T06:29:02;15.93;;;11.43;;
8365;SDS011;4220;42.502;24.188;2024-02-21T06:31:29;13.30;;;9.30;;
8365;SDS011;4220;42.502;24.188;2024-02-21T06:33:56;11.37;;;9.30;;
8365;SDS011;4220;42.502;24.188;2024-02-21T06:36:23;11.87;;;9.33;;
8365;SDS011;4220;42.502;24.188;2024-02-21T06:38:50;14.67;;;10.23;;
8365;SDS011;4220;42.502;24.188;2024-02-21T06:41:18;12.20;;;8.93;;
8365;SDS011;4220;42.502;24.188;2024-02-21T06:43:45;12.33;;;9.33;;
8365;SDS011;4220;42.502;24.188;2024-02-21T06:46:12;12.40;;;8.80;;
8365;SDS011;4220;42.502;24.188;2024-02-21T06:48:38;14.03;;;9.40;;
8365;SDS011;4220;42.502;24.188;2024-02-21T06:51:05;11.07;;;8.23;;
8365;SDS011;4220;42.502;24.188;2024-02-21T06:53:32;10.93;;;8.57;;
8365;SDS011;4220;42.502;24.188;2024-02-21T06:55:58;9.90;;;8.03;;
8365;SDS011;4220;42.502;24.188;2024-02-21T06:58:27;10.63;;;7.93;;
8365;SDS011;4220;42.502;24.188;2024-02-21T07:00:53;9.63;;;7.80;;
8365;SDS011;4220;42.502;24.188;2024-02-21T07:03:20;11.03;;;8.67;;
8365;SDS011;4220;42.502;24.188;2024-02-21T07:05:49;11.77;;;8.80;;
8365;SDS011;4220;42.502;24.188;2024-02-21T07:08:15;7.60;;;6.27;;
8365;SDS011;4220;42.502;24.188;2024-02-21T07:10:42;8.30;;;6.73;;
8365;SDS011;4220;42.502;24.188;2024-02-21T07:13:09;12.20;;;8.50;;
8365;SDS011;4220;42.502;24.188;2024-02-21T07:15:37;9.37;;;8.00;;
8365;SDS011;4220;42.502;24.188;2024-02-21T07:18:04;11.10;;;8.43;;
8365;SDS011;4220;42.502;24.188;2024-02-21T07:20:31;11.50;;;8.67;;
8365;SDS011;4220;42.502;24.188;2024-02-21T07:22:58;11.53;;;8.13;;
8365;SDS011;4220;42.502;24.188;2024-02-21T07:25:25;9.40;;;6.80;;
8365;SDS011;4220;42.502;24.188;2024-02-21T07:27:52;12.30;;;8.97;;
8365;SDS011;4220;42.502;24.188;2024-02-21T07:30:19;8.07;;;6.73;;
8365;SDS011;4220;42.502;24.188;2024-02-21T07:32:48;7.90;;;6.97;;
8365;SDS011;4220;42.502;24.188;2024-02-21T07:35:15;10.20;;;8.00;;
8365;SDS011;4220;42.502;24.188;2024-02-21T07:37:42;14.20;;;8.67;;
8365;SDS011;4220;42.502;24.188;2024-02-21T07:40:12;9.43;;;7.67;;
8365;SDS011;4220;42.502;24.188;2024-02-21T07:42:39;9.00;;;7.83;;
8365;SDS011;4220;42.502;24.188;2024-02-21T07:45:06;7.60;;;5.50;;
8365;SDS011;4220;42.502;24.188;2024-02-21T07:47:34;12.07;;;8.63;;
8365;SDS011;4220;42.502;24.188;2024-02-21T07:50:02;9.33;;;7.93;;
8365;SDS011;4220;42.502;24.188;2024-02-21T07:52:30;9.13;;;7.73;;
8365;SDS011;4220;42.502;24.188;2024-02-21T07:54:56;10.40;;;8.23;;
8365;SDS011;4220;42.502;24.188;2024-02-21T07:57:23;10.07;;;8.17;;
8365;SDS011;4220;42.502;24.188;2024-02-21T07:59:50;9.07;;;7.43;;
8365;SDS011;4220;42.502;24.188;2024-02-21T08:02:17;12.03;;;8.63;;
8365;SDS011;4220;42.502;24.188;2024-02-21T08:04:43;14.50;;;10.77;;
8365;SDS011;4220;42.502;24.188;2024-02-21T08:07:11;12.23;;;9.87;;
8365;SDS011;4220;42.502;24.188;2024-02-21T08:09:39;10.63;;;8.33;;
8365;SDS011;4220;42.502;24.188;2024-02-21T08:12:06;9.57;;;8.47;;
8365;SDS011;4220;42.502;24.188;2024-02-21T08:14:33;8.30;;;7.00;;
8365;SDS011;4220;42.502;24.188;2024-02-21T08:17:00;10.33;;;8.13;;
8365;SDS011;4220;42.502;24.188;2024-02-21T08:19:26;9.43;;;7.83;;
8365;SDS011;4220;42.502;24.188;2024-02-21T08:21:53;12.27;;;8.57;;
8365;SDS011;4220;42.502;24.188;2024-02-21T08:24:21;10.93;;;8.23;;
8365;SDS011;4220;42.502;24.188;2024-02-21T08:26:48;9.37;;;6.83;;
8365;SDS011;4220;42.502;24.188;2024-02-21T08:29:15;15.90;;;10.97;;
8365;SDS011;4220;42.502;24.188;2024-02-21T08:31:42;12.00;;;7.97;;
8365;SDS011;4220;42.502;24.188;2024-02-21T08:34:08;22.83;;;14.93;;
8365;SDS011;4220;42.502;24.188;2024-02-21T08:36:35;11.37;;;8.57;;
8365;SDS011;4220;42.502;24.188;2024-02-21T08:39:02;14.83;;;10.33;;
8365;SDS011;4220;42.502;24.188;2024-02-21T08:41:31;14.63;;;9.77;;
8365;SDS011;4220;42.502;24.188;2024-02-21T08:43:58;9.47;;;6.90;;
8365;SDS011;4220;42.502;24.188;2024-02-21T08:46:26;9.33;;;7.13;;
8365;SDS011;4220;42.502;24.188;2024-02-21T08:48:53;12.50;;;8.93;;
8365;SDS011;4220;42.502;24.188;2024-02-21T08:51:20;11.97;;;9.07;;
8365;SDS011;4220;42.502;24.188;2024-02-21T08:53:47;8.67;;;6.67;;
8365;SDS011;4220;42.502;24.188;2024-02-21T08:56:14;7.30;;;6.23;;
8365;SDS011;4220;42.502;24.188;2024-02-21T08:58:43;8.20;;;6.23;;
8365;SDS011;4220;42.502;24.188;2024-02-21T09:01:09;6.37;;;5.10;;
8365;SDS011;4220;42.502;24.188;2024-02-21T09:03:36;14.37;;;7.57;;
8365;SDS011;4220;42.502;24.188;2024-02-21T09:06:04;17.60;;;8.00;;
8365;SDS011;4220;42.502;24.188;2024-02-21T09:08:31;10.87;;;7.20;;
8365;SDS011;4220;42.502;24.188;2024-02-21T09:10:58;8.60;;;6.33;;
8365;SDS011;4220;42.502;24.188;2024-02-21T09:13:26;22.90;;;8.83;;
8365;SDS011;4220;42.502;24.188;2024-02-21T09:15:54;9.93;;;7.67;;
8365;SDS011;4220;42.502;24.188;2024-02-21T09:18:21;8.43;;;6.97;;
8365;SDS011;4220;42.502;24.188;2024-02-21T09:20:47;11.30;;;6.97;;
8365;SDS011;4220;42.502;24.188;2024-02-21T09:23:14;8.70;;;7.40;;
8365;SDS011;4220;42.502;24.188;2024-02-21T09:25:41;44.43;;;26.43;;
8365;SDS011;4220;42.502;24.188;2024-02-21T09:28:08;6.77;;;5.30;;
8365;SDS011;4220;42.502;24.188;2024-02-21T09:30:35;8.70;;;6.33;;
8365;SDS011;4220;42.502;24.188;2024-02-21T09:33:04;7.03;;;5.63;;
8365;SDS011;4220;42.502;24.188;2024-02-21T09:35:31;7.87;;;6.17;;
8365;SDS011;4220;42.502;24.188;2024-02-21T09:37:59;10.40;;;6.93;;
8365;SDS011;4220;42.502;24.188;2024-02-21T09:40:26;11.67;;;6.40;;
8365;SDS011;4220;42.502;24.188;2024-02-21T09:42:55;9.83;;;5.83;;
8365;SDS011;4220;42.502;24.188;2024-02-21T09:45:32;8.93;;;5.70;;
8365;SDS011;4220;42.502;24.188;2024-02-21T09:48:19;7.83;;;6.10;;
8365;SDS011;4220;42.502;24.188;2024-02-21T09:50:57;9.80;;;7.27;;
8365;SDS011;4220;42.502;24.188;2024-02-21T09:53:25;6.97;;;5.60;;
8365;SDS011;4220;42.502;24.188;2024-02-21T09:55:53;8.90;;;5.40;;
8365;SDS011;4220;42.502;24.188;2024-02-21T09:58:21;7.17;;;5.30;;
8365;SDS011;4220;42.502;24.188;2024-02-21T10:00:51;6.43;;;4.88;;
8365;SDS011;4220;42.502;24.188;2024-02-21T10:03:19;7.50;;;5.97;;
8365;SDS011;4220;42.502;24.188;2024-02-21T10:05:47;10.33;;;8.67;;
8365;SDS011;4220;42.502;24.188;2024-02-21T10:08:16;6.57;;;5.30;;
8365;SDS011;4220;42.502;24.188;2024-02-21T10:10:43;12.50;;;6.73;;
8365;SDS011;4220;42.502;24.188;2024-02-21T10:13:10;8.70;;;6.70;;
8365;SDS011;4220;42.502;24.188;2024-02-21T10:15:37;8.43;;;6.63;;
8365;SDS011;4220;42.502;24.188;2024-02-21T10:18:04;9.00;;;6.00;;
8365;SDS011;4220;42.502;24.188;2024-02-21T10:20:33;8.13;;;6.30;;
8365;SDS011;4220;42.502;24.188;2024-02-21T10:23:00;7.90;;;6.17;;
8365;SDS011;4220;42.502;24.188;2024-02-21T10:25:28;10.48;;;8.05;;
8365;SDS011;4220;42.502;24.188;2024-02-21T10:27:56;13.45;;;7.50;;
8365;SDS011;4220;42.502;24.188;2024-02-21T10:30:23;7.40;;;5.38;;
8365;SDS011;4220;42.502;24.188;2024-02-21T10:32:50;9.33;;;5.60;;
8365;SDS011;4220;42.502;24.188;2024-02-21T10:35:25;6.93;;;5.20;;
8365;SDS011;4220;42.502;24.188;2024-02-21T10:37:54;6.38;;;5.25;;
8365;SDS011;4220;42.502;24.188;2024-02-21T10:40:23;9.77;;;6.10;;
8365;SDS011;4220;42.502;24.188;2024-02-21T10:42:51;7.07;;;6.38;;
8365;SDS011;4220;42.502;24.188;2024-02-21T10:45:22;6.88;;;5.70;;
8365;SDS011;4220;42.502;24.188;2024-02-21T10:47:53;10.38;;;6.57;;
8365;SDS011;4220;42.502;24.188;2024-02-21T10:50:22;8.40;;;5.45;;
8365;SDS011;4220;42.502;24.188;2024-02-21T10:52:55;5.05;;;4.47;;
8365;SDS011;4220;42.502;24.188;2024-02-21T10:55:37;7.77;;;5.03;;
8365;SDS011;4220;42.502;24.188;2024-02-21T10:58:07;7.30;;;5.93;;
8365;SDS011;4220;42.502;24.188;2024-02-21T11:00:35;8.32;;;6.18;;
8365;SDS011;4220;42.502;24.188;2024-02-21T11:03:03;6.53;;;5.65;;
8365;SDS011;4220;42.502;24.188;2024-02-21T11:05:31;5.65;;;4.95;;
8365;SDS011;4220;42.502;24.188;2024-02-21T11:08:00;7.95;;;5.20;;
8365;SDS011;4220;42.502;24.188;2024-02-21T11:10:29;6.60;;;5.25;;
8365;SDS011;4220;42.502;24.188;2024-02-21T11:13:04;6.43;;;5.35;;
8365;SDS011;4220;42.502;24.188;2024-02-21T11:15:33;6.15;;;4.95;;
8365;SDS011;4220;42.502;24.188;2024-02-21T11:18:00;5.90;;;4.75;;
8365;SDS011;4220;42.502;24.188;2024-02-21T11:20:33;4.97;;;4.03;;
8365;SDS011;4220;42.502;24.188;2024-02-21T11:23:02;6.70;;;5.07;;
8365;SDS011;4220;42.502;24.188;2024-02-21T11:25:29;8.02;;;5.38;;
8365;SDS011;4220;42.502;24.188;2024-02-21T11:28:01;5.72;;;4.82;;
8365;SDS011;4220;42.502;24.188;2024-02-21T11:30:30;7.47;;;5.30;;
8365;SDS011;4220;42.502;24.188;2024-02-21T11:33:01;7.90;;;5.90;;
8365;SDS011;4220;42.502;24.188;2024-02-21T11:35:32;6.70;;;5.30;;
8365;SDS011;4220;42.502;24.188;2024-02-21T11:38:11;5.85;;;5.18;;
8365;SDS011;4220;42.502;24.188;2024-02-21T11:40:41;4.10;;;3.70;;
8365;SDS011;4220;42.502;24.188;2024-02-21T11:43:08;6.63;;;5.53;;
8365;SDS011;4220;42.502;24.188;2024-02-21T11:45:35;5.60;;;4.93;;
8365;SDS011;4220;42.502;24.188;2024-02-21T11:48:01;5.65;;;5.15;;
8365;SDS011;4220;42.502;24.188;2024-02-21T11:50:30;6.97;;;5.07;;
8365;SDS011;4220;42.502;24.188;2024-02-21T11:52:57;6.45;;;5.15;;
8365;SDS011;4220;42.502;24.188;2024-02-21T11:55:25;5.45;;;4.82;;
8365;SDS011;4220;42.502;24.188;2024-02-21T11:57:52;6.10;;;4.82;;
8365;SDS011;4220;42.502;24.188;2024-02-21T12:00:19;5.00;;;4.60;;
8365;SDS011;4220;42.502;24.188;2024-02-21T12:02:47;7.10;;;3.92;;
8365;SDS011;4220;42.502;24.188;2024-02-21T12:05:15;6.00;;;3.78;;
8365;SDS011;4220;42.502;24.188;2024-02-21T12:07:42;4.93;;;4.10;;
8365;SDS011;4220;42.502;24.188;2024-02-21T12:10:09;5.22;;;4.63;;
8365;SDS011;4220;42.502;24.188;2024-02-21T12:12:38;5.38;;;4.60;;
8365;SDS011;4220;42.502;24.188;2024-02-21T12:15:06;7.05;;;5.47;;
8365;SDS011;4220;42.502;24.188;2024-02-21T12:17:33;7.75;;;5.75;;
8365;SDS011;4220;42.502;24.188;2024-02-21T12:20:01;6.72;;;5.20;;
8365;SDS011;4220;42.502;24.188;2024-02-21T12:22:30;7.13;;;5.57;;
8365;SDS011;4220;42.502;24.188;2024-02-21T12:24:58;7.50;;;6.47;;
8365;SDS011;4220;42.502;24.188;2024-02-21T12:27:25;6.70;;;5.57;;
8365;SDS011;4220;42.502;24.188;2024-02-21T12:29:53;6.85;;;6.15;;
8365;SDS011;4220;42.502;24.188;2024-02-21T12:32:20;6.35;;;5.28;;
8365;SDS011;4220;42.502;24.188;2024-02-21T12:34:47;6.03;;;5.38;;
8365;SDS011;4220;42.502;24.188;2024-02-21T12:37:14;7.15;;;5.90;;
8365;SDS011;4220;42.502;24.188;2024-02-21T12:39:41;8.15;;;6.07;;
8365;SDS011;4220;42.502;24.188;2024-02-21T12:42:09;7.22;;;6.00;;
8365;SDS011;4220;42.502;24.188;2024-02-21T12:44:37;9.60;;;6.47;;
8365;SDS011;4220;42.502;24.188;2024-02-21T12:47:05;6.88;;;5.80;;
8365;SDS011;4220;42.502;24.188;2024-02-21T12:49:33;7.88;;;6.15;;
8365;SDS011;4220;42.502;24.188;2024-02-21T12:52:00;7.05;;;5.38;;
8365;SDS011;4220;42.502;24.188;2024-02-21T12:54:28;7.00;;;5.10;;
8365;SDS011;4220;42.502;24.188;2024-02-21T12:56:56;6.72;;;5.35;;
8365;SDS011;4220;42.502;24.188;2024-02-21T12:59:23;6.97;;;5.38;;
8365;SDS011;4220;42.502;24.188;2024-02-21T13:01:51;5.57;;;4.80;;
8365;SDS011;4220;42.502;24.188;2024-02-21T13:04:19;8.65;;;6.22;;
8365;SDS011;4220;42.502;24.188;2024-02-21T13:06:46;6.82;;;5.43;;
8365;SDS011;4220;42.502;24.188;2024-02-21T13:09:13;6.15;;;5.03;;
8365;SDS011;4220;42.502;24.188;2024-02-21T13:11:40;5.45;;;4.65;;
8365;SDS011;4220;42.502;24.188;2024-02-21T13:14:08;6.53;;;5.28;;
8365;SDS011;4220;42.502;24.188;2024-02-21T13:16:35;7.25;;;5.13;;
8365;SDS011;4220;42.502;24.188;2024-02-21T13:19:04;5.18;;;4.68;;
8365;SDS011;4220;42.502;24.188;2024-02-21T13:21:32;6.10;;;5.50;;
8365;SDS011;4220;42.502;24.188;2024-02-21T13:23:59;6.50;;;5.80;;
8365;SDS011;4220;42.502;24.188;2024-02-21T13:26:26;6.05;;;5.20;;
8365;SDS011;4220;42.502;24.188;2024-02-21T13:28:53;6.90;;;5.13;;
8365;SDS011;4220;42.502;24.188;2024-02-21T13:31:19;5.72;;;5.15;;
8365;SDS011;4220;42.502;24.188;2024-02-21T13:33:47;35.33;;;23.98;;
8365;SDS011;4220;42.502;24.188;2024-02-21T13:36:13;29.55;;;19.05;;
8365;SDS011;4220;42.502;24.188;2024-02-21T13:38:41;16.15;;;12.00;;
8365;SDS011;4220;42.502;24.188;2024-02-21T13:41:08;5.30;;;4.55;;
8365;SDS011;4220;42.502;24.188;2024-02-21T13:43:35;5.18;;;4.68;;
8365;SDS011;4220;42.502;24.188;2024-02-21T13:46:02;6.88;;;5.35;;
8365;SDS011;4220;42.502;24.188;2024-02-21T13:48:30;4.10;;;3.72;;
8365;SDS011;4220;42.502;24.188;2024-02-21T13:50:58;7.90;;;6.75;;
8365;SDS011;4220;42.502;24.188;2024-02-21T13:53:27;4.30;;;3.88;;
8365;SDS011;4220;42.502;24.188;2024-02-21T13:55:55;5.10;;;4.60;;
8365;SDS011;4220;42.502;24.188;2024-02-21T13:58:22;11.18;;;7.45;;
8365;SDS011;4220;42.502;24.188;2024-02-21T14:00:51;5.72;;;5.03;;
8365;SDS011;4220;42.502;24.188;2024-02-21T14:03:17;7.13;;;4.88;;
8365;SDS011;4220;42.502;24.188;2024-02-21T14:05:45;6.45;;;5.10;;
8365;SDS011;4220;42.502;24.188;2024-02-21T14:08:13;5.80;;;5.05;;
8365;SDS011;4220;42.502;24.188;2024-02-21T14:10:40;7.82;;;5.72;;
8365;SDS011;4220;42.502;24.188;2024-02-21T14:13:08;10.07;;;5.00;;
8365;SDS011;4220;42.502;24.188;2024-02-21T14:15:36;4.63;;;4.10;;
8365;SDS011;4220;42.502;24.188;2024-02-21T14:18:06;5.60;;;4.30;;
8365;SDS011;4220;42.502;24.188;2024-02-21T14:20:34;14.70;;;9.10;;
8365;SDS011;4220;42.502;24.188;2024-02-21T14:23:01;6.15;;;5.13;;
8365;SDS011;4220;42.502;24.188;2024-02-21T14:25:29;6.18;;;4.90;;
8365;SDS011;4220;42.502;24.188;2024-02-21T14:27:56;24.10;;;17.00;;
8365;SDS011;4220;42.502;24.188;2024-02-21T14:30:24;107.75;;;68.13;;
8365;SDS011;4220;42.502;24.188;2024-02-21T14:32:51;7.20;;;4.82;;
8365;SDS011;4220;42.502;24.188;2024-02-21T14:35:18;7.72;;;4.80;;
8365;SDS011;4220;42.502;24.188;2024-02-21T14:37:45;6.07;;;5.07;;
8365;SDS011;4220;42.502;24.188;2024-02-21T14:40:14;7.35;;;5.97;;
8365;SDS011;4220;42.502;24.188;2024-02-21T14:42:41;5.32;;;4.72;;
8365;SDS011;4220;42.502;24.188;2024-02-21T14:45:08;5.40;;;4.90;;
8365;SDS011;4220;42.502;24.188;2024-02-21T14:47:38;7.53;;;5.57;;
8365;SDS011;4220;42.502;24.188;2024-02-21T14:50:05;6.13;;;5.07;;